Time;durP1;ratioP1;P1;durP2;ratioP2;P2;SDS_P1;SDS_P2;PMS_P1;PMS_P2;Temp;Humidity;BMP_temperature;BMP_pressure;BME280_temperature;BME280_humidity;BME280_pressure;Samples;Min_cycle;Max_cycle;Signal;HPM_P1;HPM_P2
2021/09/28 00:00:58;;;;;;;24.73;20.90;;;;;;;;;;757070;183;915844;-63
2021/09/28 00:03:24;;;;;;;25.50;17.60;;;;;;;;;;760760;184;915737;-63
2021/09/28 00:05:49;;;;;;;21.77;17.23;;;;;;;;;;757155;184;918070;-63
2021/09/28 00:08:15;;;;;;;23.77;16.75;;;;;;;;;;755214;183;916801;-64
2021/09/28 00:10:41;;;;;;;23.10;18.50;;;;;;;;;;759266;182;919269;-63
2021/09/28 00:13:07;;;;;;;23.17;17.60;;;;;;;;;;759520;184;920319;-63
2021/09/28 00:15:33;;;;;;;25.95;19.42;;;;;;;;;;757593;184;921285;-65
2021/09/28 00:17:59;;;;;;;24.70;18.60;;;;;;;;;;758515;184;919568;-63
2021/09/28 00:20:24;;;;;;;24.53;18.77;;;;;;;;;;759632;182;919517;-63
2021/09/28 00:22:54;;;;;;;25.40;18.50;;;;;;;;;;760708;182;927648;-63
2021/09/28 00:25:17;;;;;;;25.12;19.73;;;;;;;;;;759995;182;919281;-63
2021/09/28 00:27:43;;;;;;;23.57;19.03;;;;;;;;;;768549;183;918846;-64
2021/09/28 00:30:09;;;;;;;22.07;16.87;;;;;;;;;;764530;183;921500;-62
2021/09/28 00:32:34;;;;;;;25.70;18.47;;;;;;;;;;763873;183;918922;-63
2021/09/28 00:35:00;;;;;;;26.17;18.70;;;;;;;;;;764991;183;919197;-62
2021/09/28 00:37:26;;;;;;;22.63;17.30;;;;;;;;;;760164;183;932673;-62
2021/09/28 00:39:52;;;;;;;21.17;16.50;;;;;;;;;;761334;183;919391;-63
2021/09/28 00:42:18;;;;;;;23.10;18.87;;;;;;;;;;757809;183;1010237;-61
2021/09/28 00:44:44;;;;;;;26.03;18.77;;;;;;;;;;760941;184;968328;-63
2021/09/28 00:47:10;;;;;;;23.50;18.00;;;;;;;;;;765408;181;918229;-62
2021/09/28 00:49:35;;;;;;;22.90;17.70;;;;;;;;;;751252;184;919309;-63
2021/09/28 00:52:01;;;;;;;31.77;19.40;;;;;;;;;;752394;183;919085;-63
2021/09/28 00:54:27;;;;;;;24.70;17.60;;;;;;;;;;759357;183;918783;-63
2021/09/28 00:56:53;;;;;;;22.35;16.77;;;;;;;;;;748435;187;920286;-63
2021/09/28 00:59:19;;;;;;;22.43;17.60;;;;;;;;;;747071;186;919421;-62
2021/09/28 01:01:45;;;;;;;24.67;16.10;;;;;;;;;;744667;184;925882;-63
2021/09/28 01:04:10;;;;;;;25.10;16.97;;;;;;;;;;745418;186;1020260;-62
2021/09/28 01:06:36;;;;;;;22.90;17.27;;;;;;;;;;747400;187;918810;-64
2021/09/28 01:09:02;;;;;;;19.08;16.52;;;;;;;;;;755757;184;920207;-62
2021/09/28 01:11:28;;;;;;;23.50;17.50;;;;;;;;;;761484;183;919487;-63
2021/09/28 01:13:54;;;;;;;21.57;16.20;;;;;;;;;;752547;183;918964;-65
2021/09/28 01:16:19;;;;;;;20.90;16.87;;;;;;;;;;765358;180;917368;-63
2021/09/28 01:18:45;;;;;;;22.90;16.27;;;;;;;;;;770064;180;920351;-63
2021/09/28 01:21:11;;;;;;;22.08;17.15;;;;;;;;;;768406;181;920283;-63
2021/09/28 01:23:37;;;;;;;23.70;16.73;;;;;;;;;;763092;183;1017396;-63
2021/09/28 01:26:03;;;;;;;22.30;15.50;;;;;;;;;;747038;186;977458;-63
2021/09/28 01:28:29;;;;;;;21.17;15.50;;;;;;;;;;748718;184;915415;-63
2021/09/28 01:30:56;;;;;;;19.80;15.03;;;;;;;;;;763835;183;914861;-64
2021/09/28 01:33:21;;;;;;;20.88;15.32;;;;;;;;;;760225;183;919131;-64
2021/09/28 01:35:46;;;;;;;30.80;17.60;;;;;;;;;;760032;183;918912;-64
2021/09/28 01:38:12;;;;;;;25.63;17.70;;;;;;;;;;760043;183;919528;-64
2021/09/28 01:40:38;;;;;;;19.30;15.70;;;;;;;;;;761450;183;917451;-64
2021/09/28 01:43:07;;;;;;;17.70;14.67;;;;;;;;;;750989;183;927056;-65
2021/09/28 01:45:32;;;;;;;17.97;13.43;;;;;;;;;;756979;183;918987;-64
2021/09/28 01:47:58;;;;;;;19.20;14.70;;;;;;;;;;756972;183;918942;-64
2021/09/28 01:50:24;;;;;;;27.53;15.43;;;;;;;;;;758688;183;918904;-64
2021/09/28 01:52:50;;;;;;;17.27;14.43;;;;;;;;;;748268;187;928346;-64
2021/09/28 01:55:16;;;;;;;23.73;15.40;;;;;;;;;;767080;180;919012;-64
2021/09/28 01:57:42;;;;;;;22.37;13.90;;;;;;;;;;762264;183;918807;-65
2021/09/28 02:00:08;;;;;;;19.40;15.30;;;;;;;;;;762979;183;918831;-64
2021/09/28 02:02:34;;;;;;;18.70;15.57;;;;;;;;;;757954;184;919356;-64
2021/09/28 02:05:00;;;;;;;20.77;16.27;;;;;;;;;;754369;183;918472;-65
2021/09/28 02:07:26;;;;;;;19.43;16.17;;;;;;;;;;755113;183;1110519;-64
2021/09/28 02:09:52;;;;;;;21.90;16.70;;;;;;;;;;761423;183;918939;-63
2021/09/28 02:12:18;;;;;;;21.73;16.17;;;;;;;;;;750283;184;973426;-64
2021/09/28 02:14:43;;;;;;;19.87;15.60;;;;;;;;;;770305;180;919215;-64
2021/09/28 02:17:09;;;;;;;23.02;16.23;;;;;;;;;;766356;180;918290;-64
2021/09/28 02:19:35;;;;;;;19.70;15.43;;;;;;;;;;758763;184;920717;-64
2021/09/28 02:22:01;;;;;;;21.47;16.50;;;;;;;;;;760646;180;918317;-64
2021/09/28 02:24:27;;;;;;;21.30;16.80;;;;;;;;;;753260;183;917689;-64
2021/09/28 02:26:54;;;;;;;26.83;15.77;;;;;;;;;;756595;183;915716;-64
2021/09/28 02:29:19;;;;;;;20.83;15.50;;;;;;;;;;758936;181;918976;-64
2021/09/28 02:31:44;;;;;;;22.60;15.67;;;;;;;;;;755336;183;916288;-64
2021/09/28 02:34:10;;;;;;;25.03;14.83;;;;;;;;;;742010;183;915300;-64
2021/09/28 02:36:36;;;;;;;22.77;14.53;;;;;;;;;;754105;184;813122;-65
2021/09/28 02:39:02;;;;;;;21.17;15.73;;;;;;;;;;748278;187;920552;-64
2021/09/28 02:41:28;;;;;;;18.30;14.27;;;;;;;;;;748691;184;915417;-64
2021/09/28 02:43:54;;;;;;;20.10;17.23;;;;;;;;;;748447;182;919530;-64
2021/09/28 02:46:19;;;;;;;22.60;16.93;;;;;;;;;;759934;183;919617;-65
2021/09/28 02:48:45;;;;;;;18.15;14.63;;;;;;;;;;760943;182;919344;-65
2021/09/28 02:51:11;;;;;;;21.30;15.80;;;;;;;;;;774606;180;919863;-63
2021/09/28 02:53:37;;;;;;;23.20;15.43;;;;;;;;;;770976;180;918731;-64
2021/09/28 02:56:03;;;;;;;27.03;14.97;;;;;;;;;;743191;183;919864;-64
2021/09/28 02:58:29;;;;;;;21.83;14.10;;;;;;;;;;768174;180;919651;-64
2021/09/28 03:00:55;;;;;;;22.23;14.73;;;;;;;;;;772659;181;910137;-64
2021/09/28 03:03:21;;;;;;;19.40;15.07;;;;;;;;;;753750;184;920525;-64
2021/09/28 03:05:48;;;;;;;25.08;16.17;;;;;;;;;;748975;184;918171;-64
2021/09/28 03:08:13;;;;;;;17.30;14.50;;;;;;;;;;753317;187;920090;-64
2021/09/28 03:10:40;;;;;;;21.60;15.50;;;;;;;;;;758107;183;920813;-64
2021/09/28 03:13:04;;;;;;;21.70;16.10;;;;;;;;;;746718;187;917663;-64
2021/09/28 03:15:30;;;;;;;22.17;16.33;;;;;;;;;;774809;180;919363;-64
2021/09/28 03:17:56;;;;;;;20.00;15.63;;;;;;;;;;770689;180;919498;-64
2021/09/28 03:20:22;;;;;;;22.60;17.07;;;;;;;;;;766139;180;914103;-64
2021/09/28 03:22:48;;;;;;;19.80;16.77;;;;;;;;;;761724;180;920880;-64
2021/09/28 03:25:14;;;;;;;25.25;17.05;;;;;;;;;;769212;180;918512;-64
2021/09/28 03:27:39;;;;;;;21.10;16.13;;;;;;;;;;748745;183;920459;-64
2021/09/28 03:30:06;;;;;;;25.73;17.55;;;;;;;;;;772280;180;918794;-65
2021/09/28 03:32:32;;;;;;;22.60;17.33;;;;;;;;;;774019;180;914268;-64
2021/09/28 03:34:57;;;;;;;31.37;17.70;;;;;;;;;;757523;184;918585;-64
2021/09/28 03:37:23;;;;;;;27.62;17.70;;;;;;;;;;759948;183;919746;-64
2021/09/28 03:39:49;;;;;;;27.63;17.90;;;;;;;;;;762637;183;916922;-64
2021/09/28 03:42:15;;;;;;;25.50;16.27;;;;;;;;;;758316;184;919874;-64
2021/09/28 03:44:41;;;;;;;21.83;16.37;;;;;;;;;;744822;187;916108;-65
2021/09/28 03:47:07;;;;;;;25.63;17.10;;;;;;;;;;753065;181;919681;-63
2021/09/28 03:49:32;;;;;;;24.50;18.30;;;;;;;;;;762512;183;916157;-63
2021/09/28 03:51:58;;;;;;;26.85;17.70;;;;;;;;;;766763;180;909305;-63
2021/09/28 03:54:24;;;;;;;28.47;18.30;;;;;;;;;;766234;180;630178;-64
2021/09/28 03:56:50;;;;;;;26.67;17.93;;;;;;;;;;776404;178;623095;-64
2021/09/28 03:59:16;;;;;;;27.37;18.63;;;;;;;;;;774335;179;636675;-65
2021/09/28 04:01:42;;;;;;;27.70;19.57;;;;;;;;;;766925;179;628802;-64
2021/09/28 04:04:08;;;;;;;36.53;21.97;;;;;;;;;;775216;180;641253;-66
2021/09/28 04:06:33;;;;;;;31.10;20.30;;;;;;;;;;762569;180;917292;-64
2021/09/28 04:08:59;;;;;;;31.33;20.20;;;;;;;;;;758705;183;919569;-64
2021/09/28 04:11:25;;;;;;;36.28;21.15;;;;;;;;;;759951;180;919665;-63
2021/09/28 04:13:51;;;;;;;33.17;20.60;;;;;;;;;;765287;183;919040;-64
2021/09/28 04:16:17;;;;;;;27.50;19.10;;;;;;;;;;744208;184;919441;-64
2021/09/28 04:18:45;;;;;;;31.80;22.00;;;;;;;;;;761328;183;915947;-64
2021/09/28 04:21:09;;;;;;;35.67;21.53;;;;;;;;;;738887;189;918458;-64
2021/09/28 04:23:34;;;;;;;30.43;19.57;;;;;;;;;;755758;183;919210;-64
2021/09/28 04:26:02;;;;;;;34.60;22.60;;;;;;;;;;756802;180;919452;-65
2021/09/28 04:28:26;;;;;;;31.27;21.83;;;;;;;;;;763827;183;919111;-64
2021/09/28 04:30:52;;;;;;;37.45;21.37;;;;;;;;;;755835;182;1019975;-64
2021/09/28 04:33:18;;;;;;;38.70;22.17;;;;;;;;;;757037;181;918972;-64
2021/09/28 04:35:44;;;;;;;39.83;23.27;;;;;;;;;;765289;182;919214;-64
2021/09/28 04:38:09;;;;;;;37.13;20.80;;;;;;;;;;769001;180;920026;-64
2021/09/28 04:40:35;;;;;;;38.13;22.30;;;;;;;;;;764590;180;918531;-65
2021/09/28 04:43:01;;;;;;;26.77;20.20;;;;;;;;;;763938;180;918854;-64
2021/09/28 04:45:27;;;;;;;28.30;20.80;;;;;;;;;;768410;180;918049;-64
2021/09/28 04:47:53;;;;;;;34.07;23.30;;;;;;;;;;763230;183;920631;-64
2021/09/28 04:50:19;;;;;;;28.53;20.57;;;;;;;;;;759550;181;919482;-64
2021/09/28 04:52:45;;;;;;;44.67;23.47;;;;;;;;;;762881;183;915524;-64
2021/09/28 04:55:11;;;;;;;38.97;24.37;;;;;;;;;;758578;180;910448;-65
2021/09/28 04:57:36;;;;;;;35.67;23.30;;;;;;;;;;761217;183;917114;-64
2021/09/28 05:00:02;;;;;;;40.77;24.40;;;;;;;;;;752282;183;919663;-64
2021/09/28 05:02:28;;;;;;;40.37;25.30;;;;;;;;;;755362;183;919654;-64
2021/09/28 05:04:54;;;;;;;40.40;25.83;;;;;;;;;;768893;180;918799;-64
2021/09/28 05:07:20;;;;;;;46.83;29.30;;;;;;;;;;758037;184;919207;-64
2021/09/28 05:09:46;;;;;;;47.93;30.63;;;;;;;;;;735394;188;918336;-64
2021/09/28 05:12:12;;;;;;;43.78;28.73;;;;;;;;;;733783;186;918212;-64
2021/09/28 05:14:37;;;;;;;59.87;33.80;;;;;;;;;;749010;186;919591;-64
2021/09/28 05:17:03;;;;;;;67.80;34.07;;;;;;;;;;754823;184;918357;-64
2021/09/28 05:19:29;;;;;;;65.87;35.33;;;;;;;;;;767730;180;920500;-64
2021/09/28 05:21:55;;;;;;;76.93;43.07;;;;;;;;;;766286;180;1020795;-65
2021/09/28 05:24:22;;;;;;;84.23;46.37;;;;;;;;;;760744;183;919620;-64
2021/09/28 05:26:47;;;;;;;91.77;45.93;;;;;;;;;;759322;183;919271;-63
2021/09/28 05:29:13;;;;;;;91.77;46.17;;;;;;;;;;760023;183;923022;-62
2021/09/28 05:31:38;;;;;;;82.10;47.47;;;;;;;;;;763218;183;919463;-62
2021/09/28 05:34:04;;;;;;;99.60;43.00;;;;;;;;;;759401;183;922227;-64
2021/09/28 05:36:30;;;;;;;78.97;41.87;;;;;;;;;;760140;183;919092;-63
2021/09/28 05:38:56;;;;;;;88.43;42.83;;;;;;;;;;761251;183;919092;-63
2021/09/28 05:41:22;;;;;;;84.70;42.07;;;;;;;;;;767318;183;917746;-63
2021/09/28 05:43:48;;;;;;;80.47;43.27;;;;;;;;;;762015;183;919919;-63
2021/09/28 05:46:13;;;;;;;76.95;44.58;;;;;;;;;;758261;183;918743;-63
2021/09/28 05:48:39;;;;;;;90.73;47.00;;;;;;;;;;754237;184;919251;-63
2021/09/28 05:51:06;;;;;;;86.50;46.10;;;;;;;;;;746091;183;919737;-64
2021/09/28 05:53:36;;;;;;;90.10;47.80;;;;;;;;;;745572;187;920184;-63
2021/09/28 05:55:58;;;;;;;94.60;48.13;;;;;;;;;;751237;187;921374;-63
2021/09/28 05:58:24;;;;;;;84.50;48.67;;;;;;;;;;763260;183;919717;-63
2021/09/28 06:00:49;;;;;;;89.70;45.67;;;;;;;;;;767548;180;919459;-63
2021/09/28 06:03:15;;;;;;;87.73;47.17;;;;;;;;;;768678;181;917841;-63
2021/09/28 06:05:41;;;;;;;91.10;49.63;;;;;;;;;;759765;180;1731981;-65
2021/09/28 06:08:07;;;;;;;93.87;50.20;;;;;;;;;;768317;180;918919;-63
2021/09/28 06:10:33;;;;;;;104.97;49.03;;;;;;;;;;753554;183;918141;-63
2021/09/28 06:13:00;;;;;;;96.07;48.17;;;;;;;;;;768474;180;919458;-63
2021/09/28 06:15:26;;;;;;;86.73;50.43;;;;;;;;;;767878;180;921277;-63
2021/09/28 06:17:50;;;;;;;82.10;49.20;;;;;;;;;;762132;180;949461;-63
2021/09/28 06:20:16;;;;;;;81.70;47.63;;;;;;;;;;771867;179;918812;-63
2021/09/28 06:22:42;;;;;;;77.68;44.05;;;;;;;;;;767820;180;918865;-63
2021/09/28 06:25:08;;;;;;;73.60;44.85;;;;;;;;;;772921;180;1020272;-66
2021/09/28 06:27:34;;;;;;;77.47;44.83;;;;;;;;;;766879;181;918191;-63
2021/09/28 06:30:00;;;;;;;78.87;42.77;;;;;;;;;;752112;185;918683;-63
2021/09/28 06:32:27;;;;;;;70.97;43.03;;;;;;;;;;759947;180;918043;-64
2021/09/28 06:34:52;;;;;;;78.43;44.30;;;;;;;;;;759962;180;920198;-64
2021/09/28 06:37:18;;;;;;;76.90;45.73;;;;;;;;;;766508;180;919129;-64
2021/09/28 06:39:43;;;;;;;79.43;42.60;;;;;;;;;;763534;180;920761;-63
2021/09/28 06:42:09;;;;;;;83.30;44.78;;;;;;;;;;768515;180;918751;-64
2021/09/28 06:44:35;;;;;;;74.37;46.33;;;;;;;;;;766195;180;918427;-63
2021/09/28 06:47:01;;;;;;;90.67;46.77;;;;;;;;;;755562;181;919009;-63
2021/09/28 06:49:27;;;;;;;77.97;47.13;;;;;;;;;;749182;183;919565;-64
2021/09/28 06:51:53;;;;;;;75.30;43.23;;;;;;;;;;763390;183;916875;-66
2021/09/28 06:54:19;;;;;;;75.43;46.63;;;;;;;;;;767869;182;1019161;-64
2021/09/28 06:56:44;;;;;;;72.30;44.40;;;;;;;;;;762235;180;919534;-64
2021/09/28 06:59:10;;;;;;;86.83;47.27;;;;;;;;;;767191;180;919470;-64
2021/09/28 07:01:36;;;;;;;76.97;47.60;;;;;;;;;;767382;182;914113;-64
2021/09/28 07:04:02;;;;;;;82.70;47.70;;;;;;;;;;762549;183;914774;-64
2021/09/28 07:06:28;;;;;;;77.13;45.90;;;;;;;;;;766169;180;919511;-64
2021/09/28 07:08:54;;;;;;;77.90;44.70;;;;;;;;;;776781;180;913233;-64
2021/09/28 07:11:19;;;;;;;75.83;44.77;;;;;;;;;;761629;180;919438;-64
2021/09/28 07:13:46;;;;;;;83.27;46.97;;;;;;;;;;756800;183;918570;-65
2021/09/28 07:16:11;;;;;;;77.57;49.47;;;;;;;;;;772628;180;919545;-65
2021/09/28 07:18:37;;;;;;;88.63;51.70;;;;;;;;;;764990;180;919484;-65
2021/09/28 07:21:03;;;;;;;87.17;46.50;;;;;;;;;;766192;180;910284;-64
2021/09/28 07:23:30;;;;;;;91.03;49.23;;;;;;;;;;770587;180;627147;-64
2021/09/28 07:25:55;;;;;;;80.90;50.27;;;;;;;;;;756152;184;922314;-65
2021/09/28 07:28:20;;;;;;;83.70;48.53;;;;;;;;;;745212;184;919696;-65
2021/09/28 07:30:46;;;;;;;83.47;50.53;;;;;;;;;;765360;180;919062;-66
2021/09/28 07:33:12;;;;;;;70.43;44.40;;;;;;;;;;769904;180;920505;-65
2021/09/28 07:35:42;;;;;;;74.33;48.47;;;;;;;;;;746276;184;930323;-64
2021/09/28 07:38:04;;;;;;;83.53;46.20;;;;;;;;;;744314;184;919858;-64
2021/09/28 07:40:30;;;;;;;71.87;45.97;;;;;;;;;;774084;181;920332;-65
2021/09/28 07:42:55;;;;;;;76.30;46.53;;;;;;;;;;769805;180;918959;-63
2021/09/28 07:45:21;;;;;;;86.53;47.00;;;;;;;;;;765324;180;922262;-63
2021/09/28 07:47:47;;;;;;;81.28;50.08;;;;;;;;;;762822;180;944402;-63
2021/09/28 07:50:13;;;;;;;81.77;50.47;;;;;;;;;;762217;182;919751;-62
2021/09/28 07:52:40;;;;;;;90.27;50.43;;;;;;;;;;762026;180;919798;-63
2021/09/28 07:55:05;;;;;;;70.73;47.50;;;;;;;;;;746078;183;918666;-64
2021/09/28 07:57:31;;;;;;;89.97;53.07;;;;;;;;;;770791;180;918368;-64
2021/09/28 07:59:57;;;;;;;76.60;45.83;;;;;;;;;;766156;180;919267;-64
2021/09/28 08:02:23;;;;;;;85.33;48.03;;;;;;;;;;766981;180;991175;-64
2021/09/28 08:04:48;;;;;;;73.87;49.07;;;;;;;;;;770379;180;919694;-63
2021/09/28 08:07:17;;;;;;;86.07;47.60;;;;;;;;;;761540;182;919861;-64
2021/09/28 08:09:40;;;;;;;74.07;45.47;;;;;;;;;;758238;180;957280;-64
2021/09/28 08:12:06;;;;;;;72.40;46.67;;;;;;;;;;777669;180;911277;-64
2021/09/28 08:14:32;;;;;;;73.07;46.77;;;;;;;;;;756137;180;919182;-64
2021/09/28 08:17:11;;;;;;;74.30;47.38;;;;;;;;;;767430;180;919647;-64
2021/09/28 08:19:39;;;;;;;62.63;42.33;;;;;;;;;;768795;180;919250;-64
2021/09/28 08:22:03;;;;;;;76.37;47.27;;;;;;;;;;760002;184;920213;-64
2021/09/28 08:24:34;;;;;;;75.23;44.60;;;;;;;;;;762959;182;917032;-65
2021/09/28 08:29:26;;;;;;;68.40;44.77;;;;;;;;;;760726;180;919612;-65
2021/09/28 08:31:52;;;;;;;84.60;48.57;;;;;;;;;;766872;180;916539;-64
2021/09/28 08:34:19;;;;;;;85.57;47.70;;;;;;;;;;759465;180;966739;-65
2021/09/28 08:36:46;;;;;;;76.83;44.83;;;;;;;;;;759557;183;918204;-65
2021/09/28 08:39:12;;;;;;;73.80;44.37;;;;;;;;;;760238;184;915549;-64
2021/09/28 08:41:36;;;;;;;83.50;46.30;;;;;;;;;;765609;180;920751;-64
2021/09/28 08:44:02;;;;;;;64.55;45.53;;;;;;;;;;762073;182;919691;-64
2021/09/28 08:46:28;;;;;;;74.37;47.50;;;;;;;;;;751284;183;919399;-64
2021/09/28 08:48:53;;;;;;;76.10;47.70;;;;;;;;;;767891;180;919136;-64
2021/09/28 08:51:19;;;;;;;78.73;46.63;;;;;;;;;;760871;183;923624;-63
2021/09/28 08:53:45;;;;;;;76.10;46.47;;;;;;;;;;756587;183;920096;-64
2021/09/28 08:56:11;;;;;;;71.60;45.63;;;;;;;;;;753692;184;918851;-64
2021/09/28 08:58:37;;;;;;;66.43;40.70;;;;;;;;;;750255;183;1047697;-64
2021/09/28 09:01:03;;;;;;;68.57;42.37;;;;;;;;;;758902;183;920465;-64
2021/09/28 09:03:29;;;;;;;73.67;41.77;;;;;;;;;;767247;183;919173;-65
2021/09/28 09:05:55;;;;;;;74.33;43.93;;;;;;;;;;755733;183;919421;-64
2021/09/28 09:08:23;;;;;;;70.40;44.33;;;;;;;;;;749513;183;919697;-65
2021/09/28 09:10:49;;;;;;;71.57;44.80;;;;;;;;;;758201;183;919044;-64
2021/09/28 09:13:14;;;;;;;68.37;43.77;;;;;;;;;;764856;183;918852;-65
2021/09/28 09:15:40;;;;;;;66.83;42.43;;;;;;;;;;749694;184;919260;-64
2021/09/28 09:18:06;;;;;;;67.60;41.97;;;;;;;;;;750659;180;919121;-64
2021/09/28 09:20:33;;;;;;;65.90;44.10;;;;;;;;;;761772;183;918752;-63
2021/09/28 09:23:16;;;;;;;85.33;48.80;;;;;;;;;;755566;183;918685;-65
2021/09/28 09:25:42;;;;;;;75.50;45.23;;;;;;;;;;752135;180;918919;-65
2021/09/28 09:28:14;;;;;;;82.23;46.37;;;;;;;;;;769806;180;920235;-64
2021/09/28 09:30:40;;;;;;;71.60;45.47;;;;;;;;;;755359;180;918990;-65
2021/09/28 09:33:06;;;;;;;79.63;47.93;;;;;;;;;;775810;180;919957;-64
2021/09/28 09:35:32;;;;;;;68.13;44.27;;;;;;;;;;764685;180;917944;-65
2021/09/28 09:38:03;;;;;;;68.00;44.78;;;;;;;;;;762788;180;913273;-66
2021/09/28 09:40:31;;;;;;;75.63;45.17;;;;;;;;;;747509;184;918460;-64
2021/09/28 09:42:57;;;;;;;67.73;46.40;;;;;;;;;;762722;183;918408;-64
2021/09/28 09:45:23;;;;;;;63.93;41.23;;;;;;;;;;747265;186;918957;-65
2021/09/28 09:47:49;;;;;;;64.23;40.40;;;;;;;;;;749463;183;919397;-65
2021/09/28 09:50:14;;;;;;;67.67;44.27;;;;;;;;;;748406;183;917949;-67
2021/09/28 09:52:55;;;;;;;67.43;39.17;;;;;;;;;;760936;180;954535;-65
2021/09/28 09:55:25;;;;;;;66.93;42.27;;;;;;;;;;764479;181;919561;-64
2021/09/28 09:57:51;;;;;;;57.17;39.30;;;;;;;;;;765522;182;919457;-64
2021/09/28 10:00:17;;;;;;;54.83;31.20;;;;;;;;;;752664;183;921141;-64
2021/09/28 10:02:42;;;;;;;39.07;27.90;;;;;;;;;;746431;187;919394;-64
2021/09/28 10:05:09;;;;;;;44.87;28.80;;;;;;;;;;748281;187;919273;-65
2021/09/28 10:07:35;;;;;;;51.77;33.30;;;;;;;;;;766951;183;639442;-65
2021/09/28 10:10:01;;;;;;;44.73;28.13;;;;;;;;;;779865;180;619258;-65
2021/09/28 10:12:27;;;;;;;40.30;26.97;;;;;;;;;;776756;180;630479;-65
2021/09/28 10:14:52;;;;;;;37.30;27.30;;;;;;;;;;772214;180;623863;-66
2021/09/28 10:17:39;;;;;;;31.87;24.00;;;;;;;;;;777689;180;616325;-66
2021/09/28 10:20:02;;;;;;;44.37;27.77;;;;;;;;;;778895;180;635867;-65
2021/09/28 10:22:33;;;;;;;32.70;22.37;;;;;;;;;;751753;182;920610;-64
2021/09/28 10:24:58;;;;;;;33.73;23.40;;;;;;;;;;755498;182;921412;-65
2021/09/28 10:27:25;;;;;;;32.27;23.03;;;;;;;;;;754906;180;922669;-63
2021/09/28 10:29:52;;;;;;;31.83;23.10;;;;;;;;;;760378;183;920575;-64
2021/09/28 10:32:38;;;;;;;31.13;20.63;;;;;;;;;;759301;183;918921;-65
2021/09/28 10:35:13;;;;;;;25.47;19.47;;;;;;;;;;747413;184;919151;-66
2021/09/28 10:37:52;;;;;;;30.37;18.37;;;;;;;;;;764882;180;912840;-65
2021/09/28 10:40:36;;;;;;;21.87;17.47;;;;;;;;;;761051;180;916314;-66
2021/09/28 10:43:00;;;;;;;27.77;17.50;;;;;;;;;;752740;183;912250;-66
2021/09/28 10:45:43;;;;;;;20.87;16.47;;;;;;;;;;750658;184;912844;-65
2021/09/28 10:48:11;;;;;;;22.23;16.50;;;;;;;;;;755629;183;916623;-66
2021/09/28 10:50:35;;;;;;;25.70;17.33;;;;;;;;;;762649;183;916484;-65
2021/09/28 10:53:01;;;;;;;26.27;16.70;;;;;;;;;;744426;184;929458;-66
2021/09/28 10:55:28;;;;;;;28.93;15.93;;;;;;;;;;763101;180;919490;-65
2021/09/28 10:58:09;;;;;;;24.80;17.30;;;;;;;;;;756897;184;913691;-66
2021/09/28 11:00:53;;;;;;;25.20;15.47;;;;;;;;;;744698;187;915689;-65
2021/09/28 11:03:33;;;;;;;19.70;14.80;;;;;;;;;;740922;187;919197;-65
2021/09/28 11:05:59;;;;;;;24.53;15.40;;;;;;;;;;756804;183;919348;-65
2021/09/28 11:08:26;;;;;;;23.50;14.17;;;;;;;;;;754535;184;918932;-65
2021/09/28 11:10:54;;;;;;;33.23;17.33;;;;;;;;;;751643;185;1017755;-65
2021/09/28 11:13:20;;;;;;;22.00;16.20;;;;;;;;;;742095;188;917743;-65
2021/09/28 11:15:46;;;;;;;21.93;15.13;;;;;;;;;;765772;183;913149;-67
2021/09/28 11:18:11;;;;;;;23.52;16.05;;;;;;;;;;754766;183;919517;-67
2021/09/28 11:20:37;;;;;;;21.33;14.40;;;;;;;;;;762075;180;919280;-65
2021/09/28 11:23:07;;;;;;;24.87;15.70;;;;;;;;;;764641;183;919728;-66
2021/09/28 11:25:33;;;;;;;26.63;17.67;;;;;;;;;;747593;183;920455;-66
2021/09/28 11:28:01;;;;;;;21.60;15.00;;;;;;;;;;743410;186;918981;-66
2021/09/28 11:30:27;;;;;;;25.43;16.10;;;;;;;;;;722920;191;922613;-64
2021/09/28 11:32:55;;;;;;;19.13;15.50;;;;;;;;;;756783;186;919153;-66
2021/09/28 11:35:21;;;;;;;26.50;15.50;;;;;;;;;;745647;184;919970;-65
2021/09/28 11:37:47;;;;;;;25.20;17.60;;;;;;;;;;733703;190;919092;-66
2021/09/28 11:40:13;;;;;;;22.27;14.37;;;;;;;;;;757924;183;919161;-66
2021/09/28 11:42:39;;;;;;;25.17;14.80;;;;;;;;;;768520;180;919162;-65
2021/09/28 11:45:05;;;;;;;19.73;16.07;;;;;;;;;;761380;180;918751;-66
2021/09/28 11:47:31;;;;;;;23.03;16.10;;;;;;;;;;773711;181;919758;-65
2021/09/28 11:49:57;;;;;;;25.47;15.20;;;;;;;;;;763886;181;919002;-66
2021/09/28 11:52:22;;;;;;;24.37;14.87;;;;;;;;;;748451;186;928853;-66
2021/09/28 11:54:48;;;;;;;23.20;14.00;;;;;;;;;;759709;181;918964;-66
2021/09/28 11:57:14;;;;;;;23.00;15.85;;;;;;;;;;754939;184;920810;-65
2021/09/28 11:59:40;;;;;;;22.40;16.20;;;;;;;;;;757949;184;919840;-68
2021/09/28 12:02:06;;;;;;;20.80;13.97;;;;;;;;;;759783;180;917578;-66
2021/09/28 12:04:43;;;;;;;22.67;14.17;;;;;;;;;;761495;180;918887;-66
2021/09/28 12:07:08;;;;;;;20.63;15.33;;;;;;;;;;763830;182;918595;-67
2021/09/28 12:09:49;;;;;;;23.73;14.40;;;;;;;;;;747840;183;920138;-66
2021/09/28 12:12:15;;;;;;;22.67;13.90;;;;;;;;;;742272;184;935378;-66
2021/09/28 12:14:41;;;;;;;18.17;14.00;;;;;;;;;;754339;184;919197;-67
2021/09/28 12:17:07;;;;;;;32.60;17.20;;;;;;;;;;762533;182;917729;-66
2021/09/28 12:19:33;;;;;;;27.13;16.60;;;;;;;;;;758171;182;920199;-66
2021/09/28 12:21:59;;;;;;;23.73;16.55;;;;;;;;;;763823;182;919334;-67
2021/09/28 12:24:28;;;;;;;26.57;16.90;;;;;;;;;;768524;183;918857;-67
2021/09/28 12:26:51;;;;;;;26.30;15.40;;;;;;;;;;748141;183;920537;-68
2021/09/28 12:29:17;;;;;;;30.60;15.90;;;;;;;;;;770658;180;919275;-66
2021/09/28 12:31:42;;;;;;;21.50;15.00;;;;;;;;;;769135;180;958104;-66
2021/09/28 12:34:10;;;;;;;23.30;15.80;;;;;;;;;;761527;183;916622;-67
2021/09/28 12:36:34;;;;;;;29.00;16.93;;;;;;;;;;772250;180;915790;-67
2021/09/28 12:39:06;;;;;;;24.03;16.33;;;;;;;;;;767726;180;931519;-65
2021/09/28 12:41:32;;;;;;;26.73;16.00;;;;;;;;;;771305;180;930956;-69
2021/09/28 12:43:58;;;;;;;26.57;16.03;;;;;;;;;;749671;183;916177;-66
2021/09/28 12:46:23;;;;;;;23.43;15.07;;;;;;;;;;757983;183;916793;-65
2021/09/28 12:48:49;;;;;;;27.43;15.67;;;;;;;;;;767696;183;915912;-67
2021/09/28 12:51:18;;;;;;;24.67;16.20;;;;;;;;;;748109;187;919387;-66
2021/09/28 12:53:42;;;;;;;47.17;32.53;;;;;;;;;;768641;180;919863;-67
2021/09/28 12:56:08;;;;;;;28.93;20.00;;;;;;;;;;752464;183;914742;-68
2021/09/28 12:58:34;;;;;;;23.05;17.20;;;;;;;;;;767437;183;913860;-66
2021/09/28 13:00:59;;;;;;;34.43;20.60;;;;;;;;;;749699;183;918117;-68
2021/09/28 13:03:25;;;;;;;23.90;16.73;;;;;;;;;;747706;187;918054;-69
2021/09/28 13:05:53;;;;;;;42.43;25.57;;;;;;;;;;766356;183;917276;-67
2021/09/28 13:08:21;;;;;;;24.37;15.30;;;;;;;;;;738728;188;919376;-69
2021/09/28 13:10:44;;;;;;;24.03;15.93;;;;;;;;;;735751;187;919593;-67
2021/09/28 13:13:09;;;;;;;18.63;15.30;;;;;;;;;;741446;187;910772;-67
2021/09/28 13:15:36;;;;;;;30.90;17.50;;;;;;;;;;734721;187;918532;-69
2021/09/28 13:18:01;;;;;;;31.37;19.27;;;;;;;;;;763564;180;920533;-69
2021/09/28 13:20:27;;;;;;;22.47;16.30;;;;;;;;;;760847;180;919487;-67
2021/09/28 13:22:53;;;;;;;24.93;14.40;;;;;;;;;;763343;180;919741;-67
2021/09/28 13:25:19;;;;;;;18.80;13.53;;;;;;;;;;765286;180;918589;-67
2021/09/28 13:27:45;;;;;;;20.50;13.33;;;;;;;;;;762298;181;920553;-67
2021/09/28 13:30:11;;;;;;;21.80;13.40;;;;;;;;;;766491;182;921166;-67
2021/09/28 13:32:36;;;;;;;18.40;13.30;;;;;;;;;;761635;180;919195;-67
2021/09/28 13:35:04;;;;;;;16.23;11.97;;;;;;;;;;773918;180;946688;-67
2021/09/28 13:37:28;;;;;;;16.27;12.13;;;;;;;;;;775206;180;919426;-67
2021/09/28 13:39:54;;;;;;;26.90;17.73;;;;;;;;;;762746;180;918940;-68
2021/09/28 13:42:20;;;;;;;18.33;14.17;;;;;;;;;;771422;180;920381;-68
2021/09/28 13:44:46;;;;;;;28.10;15.75;;;;;;;;;;757120;180;918438;-66
2021/09/28 13:47:12;;;;;;;23.03;13.30;;;;;;;;;;760376;180;921060;-68
2021/09/28 13:49:38;;;;;;;19.60;11.87;;;;;;;;;;773158;180;919291;-68
2021/09/28 13:52:06;;;;;;;19.67;13.53;;;;;;;;;;773572;180;815419;-68
2021/09/28 13:54:30;;;;;;;18.00;11.97;;;;;;;;;;761020;184;918752;-68
2021/09/28 13:56:56;;;;;;;16.00;10.93;;;;;;;;;;749938;184;918297;-68
2021/09/28 13:59:21;;;;;;;24.53;13.30;;;;;;;;;;770940;180;918547;-68
2021/09/28 14:01:47;;;;;;;19.60;12.30;;;;;;;;;;774393;181;919441;-67